Terminal Aerodrome Forecast
Issued by NWS Mt. Holly, NJ

Home | Current Version | Previous Version | Text Only | Print | Product List | Glossary On
Versions: 1 2 3 4 5 6 7 8 9 10 11 12 13 14 15 16 17 18 19 20 21 22 23 24 25 26 27 28 29 30 31 32 33
000
FTUS41 KPHI 270200 AAB
TAFRDG
TAF AMD
KRDG 270225Z 2702/2724 05010G16KT P6SM -SN SCT015 BKN040
      TEMPO 2704/2706 5SM -SN OVC020
     FM270600 01012G20KT 2SM -SN OVC012
     FM271300 34013G22KT 2SM -SN BR OVC012
     FM271600 33015G25KT 4SM -SN BLSN OVC020
     FM272000 32015G26KT P6SM SCT025 BKN080=

USA.gov is the U.S. government's official web portal to all federal, state and local government web resources and services.